sensor_id;sensor_type;location;lat;lon;timestamp;P1;durP1;ratioP1;P2;durP2;ratioP2
3267;SDS011;1646;52.450;13.326;2022-09-09T00:04:15;7.57;;;6.70;;
3267;SDS011;1646;52.450;13.326;2022-09-09T00:09:21;5.87;;;5.47;;
3267;SDS011;1646;52.450;13.326;2022-09-09T00:14:25;5.80;;;5.17;;
3267;SDS011;1646;52.450;13.326;2022-09-09T00:19:33;5.17;;;4.77;;
3267;SDS011;1646;52.450;13.326;2022-09-09T00:24:41;5.83;;;5.33;;
3267;SDS011;1646;52.450;13.326;2022-09-09T00:29:45;7.70;;;7.00;;
3267;SDS011;1646;52.450;13.326;2022-09-09T00:34:49;8.43;;;6.50;;
3267;SDS011;1646;52.450;13.326;2022-09-09T00:39:51;6.87;;;6.37;;
3267;SDS011;1646;52.450;13.326;2022-09-09T00:44:58;8.50;;;7.00;;
3267;SDS011;1646;52.450;13.326;2022-09-09T00:50:11;7.30;;;6.60;;
3267;SDS011;1646;52.450;13.326;2022-09-09T00:55:24;5.57;;;5.27;;
3267;SDS011;1646;52.450;13.326;2022-09-09T01:00:33;9.00;;;7.70;;
3267;SDS011;1646;52.450;13.326;2022-09-09T01:05:39;5.93;;;5.50;;
3267;SDS011;1646;52.450;13.326;2022-09-09T01:10:44;7.40;;;6.67;;
3267;SDS011;1646;52.450;13.326;2022-09-09T01:15:51;7.80;;;7.10;;
3267;SDS011;1646;52.450;13.326;2022-09-09T01:21:00;7.13;;;6.53;;
3267;SDS011;1646;52.450;13.326;2022-09-09T01:26:17;6.30;;;5.80;;
3267;SDS011;1646;52.450;13.326;2022-09-09T01:31:20;6.13;;;5.63;;
3267;SDS011;1646;52.450;13.326;2022-09-09T01:36:26;7.70;;;6.47;;
3267;SDS011;1646;52.450;13.326;2022-09-09T01:41:31;6.30;;;5.80;;
3267;SDS011;1646;52.450;13.326;2022-09-09T01:46:35;9.30;;;6.80;;
3267;SDS011;1646;52.450;13.326;2022-09-09T01:51:37;14.63;;;12.30;;
3267;SDS011;1646;52.450;13.326;2022-09-09T01:56:46;5.73;;;5.23;;
3267;SDS011;1646;52.450;13.326;2022-09-09T02:01:57;6.30;;;5.73;;
3267;SDS011;1646;52.450;13.326;2022-09-09T02:07:13;8.50;;;5.80;;
3267;SDS011;1646;52.450;13.326;2022-09-09T02:12:22;5.37;;;4.87;;
3267;SDS011;1646;52.450;13.326;2022-09-09T02:17:26;6.50;;;5.90;;
3267;SDS011;1646;52.450;13.326;2022-09-09T02:22:33;5.90;;;5.40;;
3267;SDS011;1646;52.450;13.326;2022-09-09T02:27:38;6.17;;;5.57;;
3267;SDS011;1646;52.450;13.326;2022-09-09T02:32:37;6.50;;;6.00;;
3267;SDS011;1646;52.450;13.326;2022-09-09T02:37:42;7.07;;;6.47;;
3267;SDS011;1646;52.450;13.326;2022-09-09T02:42:45;5.57;;;5.10;;
3267;SDS011;1646;52.450;13.326;2022-09-09T02:47:47;6.47;;;5.97;;
3267;SDS011;1646;52.450;13.326;2022-09-09T02:53:00;7.20;;;5.73;;
3267;SDS011;1646;52.450;13.326;2022-09-09T02:58:10;7.13;;;5.73;;
3267;SDS011;1646;52.450;13.326;2022-09-09T03:03:17;6.30;;;5.70;;
3267;SDS011;1646;52.450;13.326;2022-09-09T03:08:19;6.60;;;5.90;;
3267;SDS011;1646;52.450;13.326;2022-09-09T03:13:19;6.23;;;5.67;;
3267;SDS011;1646;52.450;13.326;2022-09-09T03:18:18;6.10;;;5.60;;
3267;SDS011;1646;52.450;13.326;2022-09-09T03:23:20;10.40;;;5.90;;
3267;SDS011;1646;52.450;13.326;2022-09-09T03:28:21;6.80;;;6.10;;
3267;SDS011;1646;52.450;13.326;2022-09-09T03:33:19;7.63;;;5.90;;
3267;SDS011;1646;52.450;13.326;2022-09-09T03:38:17;5.83;;;5.27;;
3267;SDS011;1646;52.450;13.326;2022-09-09T03:43:16;6.27;;;5.40;;
3267;SDS011;1646;52.450;13.326;2022-09-09T03:48:15;6.50;;;5.80;;
3267;SDS011;1646;52.450;13.326;2022-09-09T03:53:15;6.23;;;5.63;;
3267;SDS011;1646;52.450;13.326;2022-09-09T03:58:15;7.17;;;5.80;;
3267;SDS011;1646;52.450;13.326;2022-09-09T04:03:16;6.70;;;5.83;;
3267;SDS011;1646;52.450;13.326;2022-09-09T04:08:15;5.47;;;4.97;;
3267;SDS011;1646;52.450;13.326;2022-09-09T04:13:13;5.30;;;4.90;;
3267;SDS011;1646;52.450;13.326;2022-09-09T04:18:14;6.70;;;6.10;;
3267;SDS011;1646;52.450;13.326;2022-09-09T04:23:19;6.57;;;5.97;;
3267;SDS011;1646;52.450;13.326;2022-09-09T04:28:18;7.00;;;6.10;;
3267;SDS011;1646;52.450;13.326;2022-09-09T04:33:19;8.50;;;5.13;;
3267;SDS011;1646;52.450;13.326;2022-09-09T04:38:21;5.97;;;5.37;;
3267;SDS011;1646;52.450;13.326;2022-09-09T04:43:20;8.07;;;5.27;;
3267;SDS011;1646;52.450;13.326;2022-09-09T04:48:20;5.60;;;5.10;;
3267;SDS011;1646;52.450;13.326;2022-09-09T04:53:18;6.80;;;5.27;;
3267;SDS011;1646;52.450;13.326;2022-09-09T04:58:18;7.53;;;4.87;;
3267;SDS011;1646;52.450;13.326;2022-09-09T05:03:18;4.53;;;4.20;;
3267;SDS011;1646;52.450;13.326;2022-09-09T05:08:16;7.17;;;5.00;;
3267;SDS011;1646;52.450;13.326;2022-09-09T05:13:15;4.60;;;4.30;;
3267;SDS011;1646;52.450;13.326;2022-09-09T05:18:14;5.10;;;4.50;;
3267;SDS011;1646;52.450;13.326;2022-09-09T05:23:13;4.50;;;4.20;;
3267;SDS011;1646;52.450;13.326;2022-09-09T05:28:11;4.27;;;3.60;;
3267;SDS011;1646;52.450;13.326;2022-09-09T05:33:09;5.83;;;4.57;;
3267;SDS011;1646;52.450;13.326;2022-09-09T05:38:09;4.83;;;4.30;;
3267;SDS011;1646;52.450;13.326;2022-09-09T05:43:07;4.90;;;4.40;;
3267;SDS011;1646;52.450;13.326;2022-09-09T05:48:05;6.10;;;4.60;;
3267;SDS011;1646;52.450;13.326;2022-09-09T05:53:04;4.50;;;4.10;;
3267;SDS011;1646;52.450;13.326;2022-09-09T05:58:03;3.93;;;3.60;;
3267;SDS011;1646;52.450;13.326;2022-09-09T06:03:01;6.20;;;4.10;;
3267;SDS011;1646;52.450;13.326;2022-09-09T06:08:00;2.90;;;2.73;;
3267;SDS011;1646;52.450;13.326;2022-09-09T06:12:59;3.97;;;3.60;;
3267;SDS011;1646;52.450;13.326;2022-09-09T06:17:59;3.80;;;3.17;;
3267;SDS011;1646;52.450;13.326;2022-09-09T06:22:57;4.00;;;2.70;;
3267;SDS011;1646;52.450;13.326;2022-09-09T06:27:55;2.90;;;2.70;;
3267;SDS011;1646;52.450;13.326;2022-09-09T06:32:55;3.00;;;2.77;;
3267;SDS011;1646;52.450;13.326;2022-09-09T06:37:55;5.87;;;3.00;;
3267;SDS011;1646;52.450;13.326;2022-09-09T06:42:58;4.53;;;3.00;;
3267;SDS011;1646;52.450;13.326;2022-09-09T06:48:08;2.33;;;2.10;;
3267;SDS011;1646;52.450;13.326;2022-09-09T06:53:08;3.40;;;2.63;;
3267;SDS011;1646;52.450;13.326;2022-09-09T06:58:07;6.20;;;2.63;;
3267;SDS011;1646;52.450;13.326;2022-09-09T07:03:06;2.00;;;1.90;;
3267;SDS011;1646;52.450;13.326;2022-09-09T07:08:05;3.20;;;2.90;;
3267;SDS011;1646;52.450;13.326;2022-09-09T07:13:05;4.90;;;2.60;;
3267;SDS011;1646;52.450;13.326;2022-09-09T07:18:04;3.80;;;2.53;;
3267;SDS011;1646;52.450;13.326;2022-09-09T07:23:02;4.03;;;2.20;;
3267;SDS011;1646;52.450;13.326;2022-09-09T07:28:01;36.97;;;11.80;;
3267;SDS011;1646;52.450;13.326;2022-09-09T07:33:01;2.90;;;2.60;;
3267;SDS011;1646;52.450;13.326;2022-09-09T07:38:00;2.40;;;1.63;;
3267;SDS011;1646;52.450;13.326;2022-09-09T07:42:58;4.03;;;2.13;;
3267;SDS011;1646;52.450;13.326;2022-09-09T07:47:57;2.30;;;2.10;;
3267;SDS011;1646;52.450;13.326;2022-09-09T07:52:56;5.50;;;2.10;;
3267;SDS011;1646;52.450;13.326;2022-09-09T07:57:56;4.10;;;2.00;;
3267;SDS011;1646;52.450;13.326;2022-09-09T08:02:54;5.40;;;1.80;;
3267;SDS011;1646;52.450;13.326;2022-09-09T08:07:52;3.60;;;1.80;;
3267;SDS011;1646;52.450;13.326;2022-09-09T08:12:51;3.40;;;1.57;;
3267;SDS011;1646;52.450;13.326;2022-09-09T08:18:09;5.83;;;2.40;;
3267;SDS011;1646;52.450;13.326;2022-09-09T08:23:07;4.20;;;1.60;;
3267;SDS011;1646;52.450;13.326;2022-09-09T08:28:07;8.90;;;1.93;;
3267;SDS011;1646;52.450;13.326;2022-09-09T08:33:06;3.80;;;1.97;;
3267;SDS011;1646;52.450;13.326;2022-09-09T08:38:07;3.10;;;1.60;;
3267;SDS011;1646;52.450;13.326;2022-09-09T08:43:09;4.10;;;1.60;;
3267;SDS011;1646;52.450;13.326;2022-09-09T08:48:17;1.80;;;1.50;;
3267;SDS011;1646;52.450;13.326;2022-09-09T08:53:27;5.13;;;2.00;;
3267;SDS011;1646;52.450;13.326;2022-09-09T08:58:31;5.80;;;1.50;;
3267;SDS011;1646;52.450;13.326;2022-09-09T09:03:37;3.83;;;1.60;;
3267;SDS011;1646;52.450;13.326;2022-09-09T09:08:43;4.23;;;1.50;;
3267;SDS011;1646;52.450;13.326;2022-09-09T09:13:52;3.50;;;1.70;;
3267;SDS011;1646;52.450;13.326;2022-09-09T09:18:54;2.67;;;1.73;;
3267;SDS011;1646;52.450;13.326;2022-09-09T09:23:55;5.73;;;1.67;;
3267;SDS011;1646;52.450;13.326;2022-09-09T09:28:58;4.30;;;1.60;;
3267;SDS011;1646;52.450;13.326;2022-09-09T09:33:59;9.20;;;2.10;;
3267;SDS011;1646;52.450;13.326;2022-09-09T09:38:59;3.37;;;1.50;;
3267;SDS011;1646;52.450;13.326;2022-09-09T09:44:25;2.57;;;1.50;;
3267;SDS011;1646;52.450;13.326;2022-09-09T09:49:32;5.13;;;1.80;;
3267;SDS011;1646;52.450;13.326;2022-09-09T09:54:32;4.60;;;1.50;;
3267;SDS011;1646;52.450;13.326;2022-09-09T09:59:36;5.47;;;1.57;;
3267;SDS011;1646;52.450;13.326;2022-09-09T10:04:45;2.77;;;1.30;;
3267;SDS011;1646;52.450;13.326;2022-09-09T10:09:45;3.27;;;1.27;;
3267;SDS011;1646;52.450;13.326;2022-09-09T10:14:51;5.37;;;1.40;;
3267;SDS011;1646;52.450;13.326;2022-09-09T10:20:01;4.37;;;1.30;;
3267;SDS011;1646;52.450;13.326;2022-09-09T10:25:22;3.90;;;1.47;;
3267;SDS011;1646;52.450;13.326;2022-09-09T10:30:30;3.97;;;1.30;;
3267;SDS011;1646;52.450;13.326;2022-09-09T10:35:38;3.57;;;1.17;;
3267;SDS011;1646;52.450;13.326;2022-09-09T10:40:48;2.00;;;1.13;;
3267;SDS011;1646;52.450;13.326;2022-09-09T10:46:06;3.63;;;1.27;;
3267;SDS011;1646;52.450;13.326;2022-09-09T10:51:16;2.30;;;1.00;;
3267;SDS011;1646;52.450;13.326;2022-09-09T10:56:20;4.20;;;1.40;;
3267;SDS011;1646;52.450;13.326;2022-09-09T11:01:24;5.87;;;1.87;;
3267;SDS011;1646;52.450;13.326;2022-09-09T11:06:27;2.80;;;1.20;;
3267;SDS011;1646;52.450;13.326;2022-09-09T11:11:31;2.57;;;1.10;;
3267;SDS011;1646;52.450;13.326;2022-09-09T11:16:36;3.83;;;1.30;;
3267;SDS011;1646;52.450;13.326;2022-09-09T11:21:40;4.17;;;1.97;;
3267;SDS011;1646;52.450;13.326;2022-09-09T11:26:44;5.33;;;1.67;;
3267;SDS011;1646;52.450;13.326;2022-09-09T11:31:50;3.50;;;1.10;;
3267;SDS011;1646;52.450;13.326;2022-09-09T11:42:35;4.67;;;1.40;;
3267;SDS011;1646;52.450;13.326;2022-09-09T11:47:35;2.70;;;1.30;;
3267;SDS011;1646;52.450;13.326;2022-09-09T11:52:36;1.63;;;1.10;;
3267;SDS011;1646;52.450;13.326;2022-09-09T11:57:35;3.50;;;1.40;;
3267;SDS011;1646;52.450;13.326;2022-09-09T12:02:35;2.93;;;1.20;;
3267;SDS011;1646;52.450;13.326;2022-09-09T12:07:33;3.97;;;1.10;;
3267;SDS011;1646;52.450;13.326;2022-09-09T12:12:36;4.40;;;0.90;;
3267;SDS011;1646;52.450;13.326;2022-09-09T12:17:42;2.60;;;1.00;;
3267;SDS011;1646;52.450;13.326;2022-09-09T12:22:45;2.73;;;1.40;;
3267;SDS011;1646;52.450;13.326;2022-09-09T12:28:04;4.47;;;0.80;;
3267;SDS011;1646;52.450;13.326;2022-09-09T12:33:10;2.87;;;0.97;;
3267;SDS011;1646;52.450;13.326;2022-09-09T12:38:11;4.83;;;1.27;;
3267;SDS011;1646;52.450;13.326;2022-09-09T12:43:16;2.90;;;1.03;;
3267;SDS011;1646;52.450;13.326;2022-09-09T12:48:18;1.20;;;0.87;;
3267;SDS011;1646;52.450;13.326;2022-09-09T12:53:19;1.87;;;1.00;;
3267;SDS011;1646;52.450;13.326;2022-09-09T12:58:22;4.10;;;1.00;;
3267;SDS011;1646;52.450;13.326;2022-09-09T13:03:23;2.30;;;0.90;;
3267;SDS011;1646;52.450;13.326;2022-09-09T13:08:22;4.67;;;1.20;;
3267;SDS011;1646;52.450;13.326;2022-09-09T13:13:21;2.83;;;1.03;;
3267;SDS011;1646;52.450;13.326;2022-09-09T13:18:25;2.13;;;1.03;;
3267;SDS011;1646;52.450;13.326;2022-09-09T13:23:26;3.00;;;1.03;;
3267;SDS011;1646;52.450;13.326;2022-09-09T13:28:26;4.60;;;1.00;;
3267;SDS011;1646;52.450;13.326;2022-09-09T13:33:32;4.40;;;0.90;;
3267;SDS011;1646;52.450;13.326;2022-09-09T13:38:35;3.20;;;1.17;;
3267;SDS011;1646;52.450;13.326;2022-09-09T13:43:36;4.30;;;1.10;;
3267;SDS011;1646;52.450;13.326;2022-09-09T13:48:37;6.40;;;1.30;;
3267;SDS011;1646;52.450;13.326;2022-09-09T13:53:37;2.83;;;1.10;;
3267;SDS011;1646;52.450;13.326;2022-09-09T13:58:35;8.97;;;1.23;;
3267;SDS011;1646;52.450;13.326;2022-09-09T14:03:33;3.00;;;1.30;;
3267;SDS011;1646;52.450;13.326;2022-09-09T14:08:32;2.53;;;1.03;;
3267;SDS011;1646;52.450;13.326;2022-09-09T14:18:39;3.77;;;1.10;;
3267;SDS011;1646;52.450;13.326;2022-09-09T14:23:38;2.30;;;0.83;;
3267;SDS011;1646;52.450;13.326;2022-09-09T14:28:36;2.63;;;0.90;;
3267;SDS011;1646;52.450;13.326;2022-09-09T14:33:52;3.07;;;1.00;;
3267;SDS011;1646;52.450;13.326;2022-09-09T14:38:51;5.23;;;0.97;;
3267;SDS011;1646;52.450;13.326;2022-09-09T14:43:49;3.07;;;1.47;;
3267;SDS011;1646;52.450;13.326;2022-09-09T14:48:48;3.43;;;1.13;;
3267;SDS011;1646;52.450;13.326;2022-09-09T14:53:46;3.80;;;1.00;;
3267;SDS011;1646;52.450;13.326;2022-09-09T14:58:46;5.87;;;1.10;;
3267;SDS011;1646;52.450;13.326;2022-09-09T15:03:48;1.83;;;1.03;;
3267;SDS011;1646;52.450;13.326;2022-09-09T15:08:47;1.83;;;0.87;;
3267;SDS011;1646;52.450;13.326;2022-09-09T15:13:50;1.53;;;1.07;;
3267;SDS011;1646;52.450;13.326;2022-09-09T15:18:50;3.90;;;0.90;;
3267;SDS011;1646;52.450;13.326;2022-09-09T15:23:50;3.87;;;1.40;;
3267;SDS011;1646;52.450;13.326;2022-09-09T15:28:50;3.43;;;1.00;;
3267;SDS011;1646;52.450;13.326;2022-09-09T15:33:48;1.87;;;0.70;;
3267;SDS011;1646;52.450;13.326;2022-09-09T15:38:46;5.03;;;1.17;;
3267;SDS011;1646;52.450;13.326;2022-09-09T15:43:45;5.40;;;1.20;;
3267;SDS011;1646;52.450;13.326;2022-09-09T15:48:46;5.67;;;1.00;;
3267;SDS011;1646;52.450;13.326;2022-09-09T15:53:51;2.63;;;1.40;;
3267;SDS011;1646;52.450;13.326;2022-09-09T15:58:51;5.13;;;1.20;;
3267;SDS011;1646;52.450;13.326;2022-09-09T16:03:51;3.43;;;1.50;;
3267;SDS011;1646;52.450;13.326;2022-09-09T16:08:51;4.80;;;1.23;;
3267;SDS011;1646;52.450;13.326;2022-09-09T16:13:51;2.40;;;1.20;;
3267;SDS011;1646;52.450;13.326;2022-09-09T16:18:50;4.97;;;1.20;;
3267;SDS011;1646;52.450;13.326;2022-09-09T16:23:51;3.03;;;1.40;;
3267;SDS011;1646;52.450;13.326;2022-09-09T16:28:50;2.90;;;1.37;;
3267;SDS011;1646;52.450;13.326;2022-09-09T16:33:50;4.87;;;0.90;;
3267;SDS011;1646;52.450;13.326;2022-09-09T16:38:51;4.33;;;1.30;;
3267;SDS011;1646;52.450;13.326;2022-09-09T16:43:51;2.30;;;1.10;;
3267;SDS011;1646;52.450;13.326;2022-09-09T16:48:50;3.63;;;1.40;;
3267;SDS011;1646;52.450;13.326;2022-09-09T16:53:51;5.40;;;1.53;;
3267;SDS011;1646;52.450;13.326;2022-09-09T16:58:50;8.10;;;3.40;;
3267;SDS011;1646;52.450;13.326;2022-09-09T17:03:53;5.83;;;2.50;;
3267;SDS011;1646;52.450;13.326;2022-09-09T17:08:56;2.30;;;1.10;;
3267;SDS011;1646;52.450;13.326;2022-09-09T17:13:56;3.70;;;1.60;;
3267;SDS011;1646;52.450;13.326;2022-09-09T17:18:56;5.70;;;1.50;;
3267;SDS011;1646;52.450;13.326;2022-09-09T17:23:56;6.60;;;1.60;;
3267;SDS011;1646;52.450;13.326;2022-09-09T17:28:55;3.50;;;1.60;;
3267;SDS011;1646;52.450;13.326;2022-09-09T17:33:56;2.00;;;1.60;;
3267;SDS011;1646;52.450;13.326;2022-09-09T17:38:55;1.57;;;1.30;;
3267;SDS011;1646;52.450;13.326;2022-09-09T17:43:53;3.90;;;1.60;;
3267;SDS011;1646;52.450;13.326;2022-09-09T17:48:54;2.23;;;1.10;;
3267;SDS011;1646;52.450;13.326;2022-09-09T17:53:58;2.60;;;1.10;;
3267;SDS011;1646;52.450;13.326;2022-09-09T17:58:57;4.80;;;1.40;;
3267;SDS011;1646;52.450;13.326;2022-09-09T18:03:58;6.60;;;1.30;;
3267;SDS011;1646;52.450;13.326;2022-09-09T18:08:58;1.87;;;1.30;;
3267;SDS011;1646;52.450;13.326;2022-09-09T18:13:58;2.07;;;1.00;;
3267;SDS011;1646;52.450;13.326;2022-09-09T18:18:59;3.60;;;1.30;;
3267;SDS011;1646;52.450;13.326;2022-09-09T18:23:59;2.97;;;1.40;;
3267;SDS011;1646;52.450;13.326;2022-09-09T18:28:58;7.07;;;1.40;;
3267;SDS011;1646;52.450;13.326;2022-09-09T18:34:00;2.27;;;1.17;;
3267;SDS011;1646;52.450;13.326;2022-09-09T18:39:00;2.93;;;1.30;;
3267;SDS011;1646;52.450;13.326;2022-09-09T18:44:01;4.13;;;1.53;;
3267;SDS011;1646;52.450;13.326;2022-09-09T18:49:02;4.70;;;1.40;;
3267;SDS011;1646;52.450;13.326;2022-09-09T18:54:00;4.27;;;1.23;;
3267;SDS011;1646;52.450;13.326;2022-09-09T18:59:01;5.30;;;1.60;;
3267;SDS011;1646;52.450;13.326;2022-09-09T19:04:02;1.47;;;1.10;;
3267;SDS011;1646;52.450;13.326;2022-09-09T19:09:02;3.70;;;1.23;;
3267;SDS011;1646;52.450;13.326;2022-09-09T19:14:02;8.63;;;1.90;;
3267;SDS011;1646;52.450;13.326;2022-09-09T19:19:03;2.83;;;1.33;;
3267;SDS011;1646;52.450;13.326;2022-09-09T19:24:06;3.10;;;1.60;;
3267;SDS011;1646;52.450;13.326;2022-09-09T19:29:07;2.90;;;1.20;;
3267;SDS011;1646;52.450;13.326;2022-09-09T19:34:11;5.50;;;1.00;;
3267;SDS011;1646;52.450;13.326;2022-09-09T19:39:09;1.73;;;1.10;;
3267;SDS011;1646;52.450;13.326;2022-09-09T19:44:09;2.90;;;1.20;;
3267;SDS011;1646;52.450;13.326;2022-09-09T19:49:11;1.27;;;1.03;;
3267;SDS011;1646;52.450;13.326;2022-09-09T19:54:11;2.60;;;1.20;;
3267;SDS011;1646;52.450;13.326;2022-09-09T19:59:11;2.60;;;1.40;;
3267;SDS011;1646;52.450;13.326;2022-09-09T20:04:13;2.33;;;1.60;;
3267;SDS011;1646;52.450;13.326;2022-09-09T20:09:13;1.50;;;0.90;;
3267;SDS011;1646;52.450;13.326;2022-09-09T20:14:15;2.30;;;1.10;;
3267;SDS011;1646;52.450;13.326;2022-09-09T20:19:15;1.10;;;1.00;;
3267;SDS011;1646;52.450;13.326;2022-09-09T20:24:13;2.03;;;1.20;;
3267;SDS011;1646;52.450;13.326;2022-09-09T20:29:14;2.70;;;1.23;;
3267;SDS011;1646;52.450;13.326;2022-09-09T20:34:14;3.87;;;1.30;;
3267;SDS011;1646;52.450;13.326;2022-09-09T20:39:15;5.73;;;1.30;;
3267;SDS011;1646;52.450;13.326;2022-09-09T20:44:15;3.63;;;1.80;;
3267;SDS011;1646;52.450;13.326;2022-09-09T20:49:17;2.50;;;1.63;;
3267;SDS011;1646;52.450;13.326;2022-09-09T20:54:17;3.10;;;1.80;;
3267;SDS011;1646;52.450;13.326;2022-09-09T20:59:19;3.03;;;1.83;;
3267;SDS011;1646;52.450;13.326;2022-09-09T21:04:19;3.97;;;1.57;;
3267;SDS011;1646;52.450;13.326;2022-09-09T21:09:18;3.63;;;1.70;;
3267;SDS011;1646;52.450;13.326;2022-09-09T21:14:17;2.77;;;1.50;;
3267;SDS011;1646;52.450;13.326;2022-09-09T21:19:15;5.67;;;1.77;;
3267;SDS011;1646;52.450;13.326;2022-09-09T21:24:15;4.83;;;2.20;;
3267;SDS011;1646;52.450;13.326;2022-09-09T21:29:13;6.00;;;1.80;;
3267;SDS011;1646;52.450;13.326;2022-09-09T21:34:12;4.30;;;1.90;;
3267;SDS011;1646;52.450;13.326;2022-09-09T21:39:10;1.87;;;1.63;;
3267;SDS011;1646;52.450;13.326;2022-09-09T21:44:10;4.40;;;2.10;;
3267;SDS011;1646;52.450;13.326;2022-09-09T21:49:09;4.63;;;1.60;;
3267;SDS011;1646;52.450;13.326;2022-09-09T21:54:07;3.03;;;1.93;;
3267;SDS011;1646;52.450;13.326;2022-09-09T21:59:05;4.50;;;1.70;;
3267;SDS011;1646;52.450;13.326;2022-09-09T22:04:05;5.70;;;2.13;;
3267;SDS011;1646;52.450;13.326;2022-09-09T22:09:03;6.50;;;1.80;;
3267;SDS011;1646;52.450;13.326;2022-09-09T22:14:01;3.63;;;1.53;;
3267;SDS011;1646;52.450;13.326;2022-09-09T22:18:59;4.30;;;2.00;;
3267;SDS011;1646;52.450;13.326;2022-09-09T22:24:00;3.13;;;1.30;;
3267;SDS011;1646;52.450;13.326;2022-09-09T22:28:59;2.37;;;1.50;;
3267;SDS011;1646;52.450;13.326;2022-09-09T22:34:00;2.70;;;1.40;;
3267;SDS011;1646;52.450;13.326;2022-09-09T22:38:59;6.90;;;1.53;;
3267;SDS011;1646;52.450;13.326;2022-09-09T22:43:57;5.83;;;2.33;;
3267;SDS011;1646;52.450;13.326;2022-09-09T22:48:55;2.90;;;1.70;;
3267;SDS011;1646;52.450;13.326;2022-09-09T22:53:54;6.13;;;1.83;;
3267;SDS011;1646;52.450;13.326;2022-09-09T22:58:54;4.60;;;1.90;;
3267;SDS011;1646;52.450;13.326;2022-09-09T23:03:53;3.90;;;1.67;;
3267;SDS011;1646;52.450;13.326;2022-09-09T23:08:55;8.53;;;1.87;;
3267;SDS011;1646;52.450;13.326;2022-09-09T23:13:57;2.50;;;1.63;;
3267;SDS011;1646;52.450;13.326;2022-09-09T23:18:56;1.90;;;1.27;;
3267;SDS011;1646;52.450;13.326;2022-09-09T23:23:56;4.43;;;1.70;;
3267;SDS011;1646;52.450;13.326;2022-09-09T23:28:57;2.23;;;2.03;;
3267;SDS011;1646;52.450;13.326;2022-09-09T23:33:57;2.43;;;1.93;;
3267;SDS011;1646;52.450;13.326;2022-09-09T23:38:56;4.67;;;2.17;;
3267;SDS011;1646;52.450;13.326;2022-09-09T23:43:56;3.00;;;1.50;;
3267;SDS011;1646;52.450;13.326;2022-09-09T23:48:54;4.40;;;2.00;;
3267;SDS011;1646;52.450;13.326;2022-09-09T23:53:54;4.37;;;2.20;;
3267;SDS011;1646;52.450;13.326;2022-09-09T23:58:53;4.00;;;2.07;;
